sensor_id;sensor_type;location;lat;lon;timestamp;P1;durP1;ratioP1;P2;durP2;ratioP2
55065;SDS011;40964;42.114;24.220;2024-01-25T00:01:09;8.90;;;3.10;;
55065;SDS011;40964;42.114;24.220;2024-01-25T00:03:35;3.85;;;2.63;;
55065;SDS011;40964;42.114;24.220;2024-01-25T00:06:01;3.33;;;2.45;;
55065;SDS011;40964;42.114;24.220;2024-01-25T00:08:26;3.10;;;1.77;;
55065;SDS011;40964;42.114;24.220;2024-01-25T00:10:52;4.15;;;2.92;;
55065;SDS011;40964;42.114;24.220;2024-01-25T00:13:17;3.13;;;2.30;;
55065;SDS011;40964;42.114;24.220;2024-01-25T00:15:43;3.58;;;1.90;;
55065;SDS011;40964;42.114;24.220;2024-01-25T00:18:08;4.43;;;2.40;;
55065;SDS011;40964;42.114;24.220;2024-01-25T00:20:33;2.90;;;2.00;;
55065;SDS011;40964;42.114;24.220;2024-01-25T00:22:59;6.15;;;2.38;;
55065;SDS011;40964;42.114;24.220;2024-01-25T00:25:24;4.50;;;2.40;;
55065;SDS011;40964;42.114;24.220;2024-01-25T00:27:50;8.27;;;2.90;;
55065;SDS011;40964;42.114;24.220;2024-01-25T00:30:15;8.77;;;3.38;;
55065;SDS011;40964;42.114;24.220;2024-01-25T00:32:41;6.13;;;3.38;;
55065;SDS011;40964;42.114;24.220;2024-01-25T00:35:06;5.88;;;2.92;;
55065;SDS011;40964;42.114;24.220;2024-01-25T00:37:35;6.05;;;2.70;;
55065;SDS011;40964;42.114;24.220;2024-01-25T00:40:00;5.57;;;2.50;;
55065;SDS011;40964;42.114;24.220;2024-01-25T00:42:26;7.05;;;2.45;;
55065;SDS011;40964;42.114;24.220;2024-01-25T00:44:53;10.02;;;2.88;;
55065;SDS011;40964;42.114;24.220;2024-01-25T00:47:19;5.25;;;2.47;;
55065;SDS011;40964;42.114;24.220;2024-01-25T00:49:44;4.68;;;2.28;;
55065;SDS011;40964;42.114;24.220;2024-01-25T00:52:10;3.88;;;2.20;;
55065;SDS011;40964;42.114;24.220;2024-01-25T00:54:36;5.95;;;2.67;;
55065;SDS011;40964;42.114;24.220;2024-01-25T00:57:02;7.70;;;3.55;;
55065;SDS011;40964;42.114;24.220;2024-01-25T00:59:27;4.68;;;3.00;;
55065;SDS011;40964;42.114;24.220;2024-01-25T01:01:53;5.65;;;2.90;;
55065;SDS011;40964;42.114;24.220;2024-01-25T01:04:20;5.95;;;3.08;;
55065;SDS011;40964;42.114;24.220;2024-01-25T01:06:46;7.38;;;3.40;;
55065;SDS011;40964;42.114;24.220;2024-01-25T01:09:13;7.38;;;2.55;;
55065;SDS011;40964;42.114;24.220;2024-01-25T01:11:38;5.93;;;3.03;;
55065;SDS011;40964;42.114;24.220;2024-01-25T01:14:04;10.95;;;4.60;;
55065;SDS011;40964;42.114;24.220;2024-01-25T01:16:29;15.02;;;5.38;;
55065;SDS011;40964;42.114;24.220;2024-01-25T01:18:57;11.57;;;4.80;;
55065;SDS011;40964;42.114;24.220;2024-01-25T01:21:30;12.02;;;4.88;;
55065;SDS011;40964;42.114;24.220;2024-01-25T01:23:56;9.90;;;4.22;;
55065;SDS011;40964;42.114;24.220;2024-01-25T01:26:21;7.15;;;3.00;;
55065;SDS011;40964;42.114;24.220;2024-01-25T01:28:46;5.78;;;2.65;;
55065;SDS011;40964;42.114;24.220;2024-01-25T01:31:12;5.18;;;2.13;;
55065;SDS011;40964;42.114;24.220;2024-01-25T01:33:37;4.03;;;2.50;;
55065;SDS011;40964;42.114;24.220;2024-01-25T01:36:03;3.35;;;1.70;;
55065;SDS011;40964;42.114;24.220;2024-01-25T01:38:28;1.27;;;1.02;;
55065;SDS011;40964;42.114;24.220;2024-01-25T01:40:54;3.20;;;1.60;;
55065;SDS011;40964;42.114;24.220;2024-01-25T01:43:20;4.90;;;2.22;;
55065;SDS011;40964;42.114;24.220;2024-01-25T01:45:45;1.73;;;1.27;;
55065;SDS011;40964;42.114;24.220;2024-01-25T01:48:11;2.53;;;1.70;;
55065;SDS011;40964;42.114;24.220;2024-01-25T01:53:12;6.18;;;2.50;;
55065;SDS011;40964;42.114;24.220;2024-01-25T01:55:38;4.75;;;2.60;;
55065;SDS011;40964;42.114;24.220;2024-01-25T01:58:05;3.50;;;2.20;;
55065;SDS011;40964;42.114;24.220;2024-01-25T02:00:31;5.05;;;2.42;;
55065;SDS011;40964;42.114;24.220;2024-01-25T02:02:58;16.52;;;7.95;;
55065;SDS011;40964;42.114;24.220;2024-01-25T02:05:24;15.90;;;6.60;;
55065;SDS011;40964;42.114;24.220;2024-01-25T02:07:50;5.25;;;3.17;;
55065;SDS011;40964;42.114;24.220;2024-01-25T02:10:17;6.15;;;3.47;;
55065;SDS011;40964;42.114;24.220;2024-01-25T02:12:43;8.80;;;2.75;;
55065;SDS011;40964;42.114;24.220;2024-01-25T02:15:08;4.13;;;2.20;;
55065;SDS011;40964;42.114;24.220;2024-01-25T02:17:34;4.93;;;2.55;;
55065;SDS011;40964;42.114;24.220;2024-01-25T02:19:59;4.25;;;2.40;;
55065;SDS011;40964;42.114;24.220;2024-01-25T02:22:27;6.13;;;2.78;;
55065;SDS011;40964;42.114;24.220;2024-01-25T02:24:52;5.88;;;2.58;;
55065;SDS011;40964;42.114;24.220;2024-01-25T02:27:18;4.43;;;2.53;;
55065;SDS011;40964;42.114;24.220;2024-01-25T02:29:43;5.45;;;2.55;;
55065;SDS011;40964;42.114;24.220;2024-01-25T02:32:09;5.72;;;2.58;;
55065;SDS011;40964;42.114;24.220;2024-01-25T02:34:34;13.13;;;5.35;;
55065;SDS011;40964;42.114;24.220;2024-01-25T02:37:00;6.15;;;3.17;;
55065;SDS011;40964;42.114;24.220;2024-01-25T02:39:25;3.22;;;1.80;;
55065;SDS011;40964;42.114;24.220;2024-01-25T02:41:51;4.13;;;2.00;;
55065;SDS011;40964;42.114;24.220;2024-01-25T02:44:16;4.18;;;2.17;;
55065;SDS011;40964;42.114;24.220;2024-01-25T02:46:42;6.82;;;2.40;;
55065;SDS011;40964;42.114;24.220;2024-01-25T02:49:09;5.60;;;3.22;;
55065;SDS011;40964;42.114;24.220;2024-01-25T02:51:35;9.35;;;4.10;;
55065;SDS011;40964;42.114;24.220;2024-01-25T02:54:00;4.30;;;2.65;;
55065;SDS011;40964;42.114;24.220;2024-01-25T02:56:26;8.43;;;4.05;;
55065;SDS011;40964;42.114;24.220;2024-01-25T02:58:58;17.95;;;7.50;;
55065;SDS011;40964;42.114;24.220;2024-01-25T03:01:24;23.67;;;10.27;;
55065;SDS011;40964;42.114;24.220;2024-01-25T03:03:49;32.83;;;8.40;;
55065;SDS011;40964;42.114;24.220;2024-01-25T03:06:15;22.00;;;7.43;;
55065;SDS011;40964;42.114;24.220;2024-01-25T03:08:40;33.70;;;10.82;;
55065;SDS011;40964;42.114;24.220;2024-01-25T03:11:06;20.08;;;7.93;;
55065;SDS011;40964;42.114;24.220;2024-01-25T03:13:31;11.57;;;4.78;;
55065;SDS011;40964;42.114;24.220;2024-01-25T03:15:57;6.95;;;3.20;;
55065;SDS011;40964;42.114;24.220;2024-01-25T03:18:23;7.78;;;3.50;;
55065;SDS011;40964;42.114;24.220;2024-01-25T03:20:48;55.03;;;22.55;;
55065;SDS011;40964;42.114;24.220;2024-01-25T03:23:16;26.65;;;11.85;;
55065;SDS011;40964;42.114;24.220;2024-01-25T03:25:41;27.52;;;13.77;;
55065;SDS011;40964;42.114;24.220;2024-01-25T03:28:07;18.77;;;6.93;;
55065;SDS011;40964;42.114;24.220;2024-01-25T03:30:34;10.40;;;4.25;;
55065;SDS011;40964;42.114;24.220;2024-01-25T03:33:00;13.52;;;6.28;;
55065;SDS011;40964;42.114;24.220;2024-01-25T03:35:25;15.32;;;7.28;;
55065;SDS011;40964;42.114;24.220;2024-01-25T03:37:51;11.65;;;6.18;;
55065;SDS011;40964;42.114;24.220;2024-01-25T03:40:16;9.55;;;4.53;;
55065;SDS011;40964;42.114;24.220;2024-01-25T03:42:42;7.20;;;4.07;;
55065;SDS011;40964;42.114;24.220;2024-01-25T03:45:07;10.38;;;5.15;;
55065;SDS011;40964;42.114;24.220;2024-01-25T03:47:33;8.82;;;4.90;;
55065;SDS011;40964;42.114;24.220;2024-01-25T03:49:58;8.68;;;4.85;;
55065;SDS011;40964;42.114;24.220;2024-01-25T03:52:25;8.35;;;4.43;;
55065;SDS011;40964;42.114;24.220;2024-01-25T03:54:50;7.80;;;4.10;;
55065;SDS011;40964;42.114;24.220;2024-01-25T03:57:16;5.82;;;3.05;;
55065;SDS011;40964;42.114;24.220;2024-01-25T03:59:41;5.40;;;3.50;;
55065;SDS011;40964;42.114;24.220;2024-01-25T04:02:06;6.32;;;3.03;;
55065;SDS011;40964;42.114;24.220;2024-01-25T04:04:32;8.80;;;3.80;;
55065;SDS011;40964;42.114;24.220;2024-01-25T04:06:57;11.77;;;3.50;;
55065;SDS011;40964;42.114;24.220;2024-01-25T04:09:23;6.53;;;3.13;;
55065;SDS011;40964;42.114;24.220;2024-01-25T04:11:48;4.00;;;1.90;;
55065;SDS011;40964;42.114;24.220;2024-01-25T04:14:14;4.60;;;1.80;;
55065;SDS011;40964;42.114;24.220;2024-01-25T04:16:40;3.35;;;1.95;;
55065;SDS011;40964;42.114;24.220;2024-01-25T04:19:06;16.92;;;5.32;;
55065;SDS011;40964;42.114;24.220;2024-01-25T04:21:32;5.57;;;2.30;;
55065;SDS011;40964;42.114;24.220;2024-01-25T04:23:57;5.72;;;3.15;;
55065;SDS011;40964;42.114;24.220;2024-01-25T04:26:23;6.72;;;3.47;;
55065;SDS011;40964;42.114;24.220;2024-01-25T04:28:49;7.88;;;3.20;;
55065;SDS011;40964;42.114;24.220;2024-01-25T04:31:14;4.65;;;2.22;;
55065;SDS011;40964;42.114;24.220;2024-01-25T04:33:40;2.75;;;1.23;;
55065;SDS011;40964;42.114;24.220;2024-01-25T04:36:05;1.13;;;0.82;;
55065;SDS011;40964;42.114;24.220;2024-01-25T04:38:31;0.70;;;0.70;;
55065;SDS011;40964;42.114;24.220;2024-01-25T04:40:56;0.73;;;0.63;;
55065;SDS011;40964;42.114;24.220;2024-01-25T04:43:22;0.47;;;0.47;;
55065;SDS011;40964;42.114;24.220;2024-01-25T04:45:47;3.17;;;1.40;;
55065;SDS011;40964;42.114;24.220;2024-01-25T04:48:13;1.88;;;1.05;;
55065;SDS011;40964;42.114;24.220;2024-01-25T04:50:38;2.03;;;1.35;;
55065;SDS011;40964;42.114;24.220;2024-01-25T04:53:04;1.23;;;1.13;;
55065;SDS011;40964;42.114;24.220;2024-01-25T04:55:30;0.77;;;0.77;;
55065;SDS011;40964;42.114;24.220;2024-01-25T04:57:55;1.15;;;0.60;;
55065;SDS011;40964;42.114;24.220;2024-01-25T05:00:22;0.65;;;0.52;;
55065;SDS011;40964;42.114;24.220;2024-01-25T05:02:47;0.40;;;0.40;;
55065;SDS011;40964;42.114;24.220;2024-01-25T05:05:13;0.60;;;0.57;;
55065;SDS011;40964;42.114;24.220;2024-01-25T05:07:40;0.52;;;0.52;;
55065;SDS011;40964;42.114;24.220;2024-01-25T05:10:06;0.65;;;0.60;;
55065;SDS011;40964;42.114;24.220;2024-01-25T05:12:31;0.95;;;0.77;;
55065;SDS011;40964;42.114;24.220;2024-01-25T05:14:57;1.25;;;0.70;;
55065;SDS011;40964;42.114;24.220;2024-01-25T05:17:23;3.08;;;1.75;;
55065;SDS011;40964;42.114;24.220;2024-01-25T05:19:49;2.22;;;1.88;;
55065;SDS011;40964;42.114;24.220;2024-01-25T05:22:14;4.07;;;2.40;;
55065;SDS011;40964;42.114;24.220;2024-01-25T05:24:40;25.25;;;9.77;;
55065;SDS011;40964;42.114;24.220;2024-01-25T05:27:06;29.80;;;12.32;;
55065;SDS011;40964;42.114;24.220;2024-01-25T05:29:31;19.65;;;10.38;;
55065;SDS011;40964;42.114;24.220;2024-01-25T05:31:57;21.30;;;10.32;;
55065;SDS011;40964;42.114;24.220;2024-01-25T05:34:22;8.00;;;4.50;;
55065;SDS011;40964;42.114;24.220;2024-01-25T05:36:48;8.07;;;3.05;;
55065;SDS011;40964;42.114;24.220;2024-01-25T05:39:14;5.82;;;3.40;;
55065;SDS011;40964;42.114;24.220;2024-01-25T05:41:40;5.65;;;3.00;;
55065;SDS011;40964;42.114;24.220;2024-01-25T05:44:05;5.47;;;3.17;;
55065;SDS011;40964;42.114;24.220;2024-01-25T05:46:31;5.60;;;2.38;;
55065;SDS011;40964;42.114;24.220;2024-01-25T05:48:56;3.95;;;2.75;;
55065;SDS011;40964;42.114;24.220;2024-01-25T05:51:22;7.65;;;4.10;;
55065;SDS011;40964;42.114;24.220;2024-01-25T05:53:47;8.43;;;4.15;;
55065;SDS011;40964;42.114;24.220;2024-01-25T05:56:13;3.40;;;2.38;;
55065;SDS011;40964;42.114;24.220;2024-01-25T05:58:38;5.40;;;2.20;;
55065;SDS011;40964;42.114;24.220;2024-01-25T06:01:04;3.85;;;1.48;;
55065;SDS011;40964;42.114;24.220;2024-01-25T06:03:29;2.80;;;1.55;;
55065;SDS011;40964;42.114;24.220;2024-01-25T06:05:55;2.95;;;1.52;;
55065;SDS011;40964;42.114;24.220;2024-01-25T06:08:20;2.55;;;1.25;;
55065;SDS011;40964;42.114;24.220;2024-01-25T06:10:46;2.05;;;1.73;;
55065;SDS011;40964;42.114;24.220;2024-01-25T06:13:11;4.97;;;1.17;;
55065;SDS011;40964;42.114;24.220;2024-01-25T06:15:36;2.58;;;0.73;;
55065;SDS011;40964;42.114;24.220;2024-01-25T06:18:02;1.35;;;0.77;;
55065;SDS011;40964;42.114;24.220;2024-01-25T06:20:28;14.90;;;4.57;;
55065;SDS011;40964;42.114;24.220;2024-01-25T06:22:53;3.13;;;1.05;;
55065;SDS011;40964;42.114;24.220;2024-01-25T06:25:19;2.08;;;1.02;;
55065;SDS011;40964;42.114;24.220;2024-01-25T06:27:44;1.30;;;0.82;;
55065;SDS011;40964;42.114;24.220;2024-01-25T06:30:10;2.53;;;1.08;;
55065;SDS011;40964;42.114;24.220;2024-01-25T06:32:35;6.75;;;2.20;;
55065;SDS011;40964;42.114;24.220;2024-01-25T06:35:01;4.13;;;2.35;;
55065;SDS011;40964;42.114;24.220;2024-01-25T06:37:27;4.97;;;2.92;;
55065;SDS011;40964;42.114;24.220;2024-01-25T06:39:53;5.75;;;2.38;;
55065;SDS011;40964;42.114;24.220;2024-01-25T06:42:18;4.30;;;2.10;;
55065;SDS011;40964;42.114;24.220;2024-01-25T06:44:44;6.90;;;3.42;;
55065;SDS011;40964;42.114;24.220;2024-01-25T06:47:09;6.05;;;2.00;;
55065;SDS011;40964;42.114;24.220;2024-01-25T06:49:35;7.45;;;2.60;;
55065;SDS011;40964;42.114;24.220;2024-01-25T06:52:00;3.45;;;2.10;;
55065;SDS011;40964;42.114;24.220;2024-01-25T06:54:26;8.98;;;4.28;;
55065;SDS011;40964;42.114;24.220;2024-01-25T06:56:51;18.00;;;6.55;;
55065;SDS011;40964;42.114;24.220;2024-01-25T06:59:17;9.57;;;4.28;;
55065;SDS011;40964;42.114;24.220;2024-01-25T07:01:42;6.72;;;3.30;;
55065;SDS011;40964;42.114;24.220;2024-01-25T07:04:08;46.95;;;17.95;;
55065;SDS011;40964;42.114;24.220;2024-01-25T07:06:33;21.20;;;8.80;;
55065;SDS011;40964;42.114;24.220;2024-01-25T07:08:59;21.60;;;10.50;;
55065;SDS011;40964;42.114;24.220;2024-01-25T07:11:24;22.77;;;9.57;;
55065;SDS011;40964;42.114;24.220;2024-01-25T07:13:50;5.72;;;2.85;;
55065;SDS011;40964;42.114;24.220;2024-01-25T07:16:16;2.22;;;1.60;;
55065;SDS011;40964;42.114;24.220;2024-01-25T07:18:41;2.50;;;1.92;;
55065;SDS011;40964;42.114;24.220;2024-01-25T07:21:07;4.47;;;2.47;;
55065;SDS011;40964;42.114;24.220;2024-01-25T07:23:33;11.65;;;4.80;;
55065;SDS011;40964;42.114;24.220;2024-01-25T07:25:58;5.97;;;3.28;;
55065;SDS011;40964;42.114;24.220;2024-01-25T07:28:24;6.28;;;3.92;;
55065;SDS011;40964;42.114;24.220;2024-01-25T07:30:50;4.38;;;2.60;;
55065;SDS011;40964;42.114;24.220;2024-01-25T07:33:16;3.90;;;2.17;;
55065;SDS011;40964;42.114;24.220;2024-01-25T07:35:41;7.75;;;4.22;;
55065;SDS011;40964;42.114;24.220;2024-01-25T07:38:13;2.55;;;0.63;;
55065;SDS011;40964;42.114;24.220;2024-01-25T07:40:40;1.52;;;1.02;;
55065;SDS011;40964;42.114;24.220;2024-01-25T07:43:05;1.00;;;0.80;;
55065;SDS011;40964;42.114;24.220;2024-01-25T07:45:31;2.60;;;1.30;;
55065;SDS011;40964;42.114;24.220;2024-01-25T07:47:57;1.55;;;0.73;;
55065;SDS011;40964;42.114;24.220;2024-01-25T07:50:23;3.28;;;1.17;;
55065;SDS011;40964;42.114;24.220;2024-01-25T07:52:49;1.75;;;1.10;;
55065;SDS011;40964;42.114;24.220;2024-01-25T07:55:15;3.35;;;1.65;;
55065;SDS011;40964;42.114;24.220;2024-01-25T07:57:43;2.95;;;1.80;;
55065;SDS011;40964;42.114;24.220;2024-01-25T08:00:09;2.40;;;1.30;;
55065;SDS011;40964;42.114;24.220;2024-01-25T08:02:37;3.55;;;2.08;;
55065;SDS011;40964;42.114;24.220;2024-01-25T08:05:05;9.52;;;4.65;;
55065;SDS011;40964;42.114;24.220;2024-01-25T08:07:31;10.15;;;4.05;;
55065;SDS011;40964;42.114;24.220;2024-01-25T08:09:56;18.63;;;5.97;;
55065;SDS011;40964;42.114;24.220;2024-01-25T08:12:26;6.78;;;2.95;;
55065;SDS011;40964;42.114;24.220;2024-01-25T08:14:51;8.93;;;2.97;;
55065;SDS011;40964;42.114;24.220;2024-01-25T08:17:17;3.28;;;2.08;;
55065;SDS011;40964;42.114;24.220;2024-01-25T08:19:42;8.35;;;3.45;;
55065;SDS011;40964;42.114;24.220;2024-01-25T08:22:08;7.25;;;3.15;;
55065;SDS011;40964;42.114;24.220;2024-01-25T08:24:35;8.07;;;3.45;;
55065;SDS011;40964;42.114;24.220;2024-01-25T08:27:00;7.65;;;2.72;;
55065;SDS011;40964;42.114;24.220;2024-01-25T08:29:26;9.73;;;3.78;;
55065;SDS011;40964;42.114;24.220;2024-01-25T08:31:51;9.90;;;4.47;;
55065;SDS011;40964;42.114;24.220;2024-01-25T08:34:17;14.02;;;7.35;;
55065;SDS011;40964;42.114;24.220;2024-01-25T08:36:42;8.35;;;4.75;;
55065;SDS011;40964;42.114;24.220;2024-01-25T08:39:08;7.10;;;3.15;;
55065;SDS011;40964;42.114;24.220;2024-01-25T08:41:34;14.00;;;6.75;;
55065;SDS011;40964;42.114;24.220;2024-01-25T08:44:00;7.72;;;3.13;;
55065;SDS011;40964;42.114;24.220;2024-01-25T08:46:26;2.05;;;1.40;;
55065;SDS011;40964;42.114;24.220;2024-01-25T08:48:52;2.88;;;1.10;;
55065;SDS011;40964;42.114;24.220;2024-01-25T08:51:17;1.17;;;0.98;;
55065;SDS011;40964;42.114;24.220;2024-01-25T08:53:43;2.42;;;1.55;;
55065;SDS011;40964;42.114;24.220;2024-01-25T08:56:08;2.38;;;1.70;;
55065;SDS011;40964;42.114;24.220;2024-01-25T08:58:34;3.08;;;1.42;;
55065;SDS011;40964;42.114;24.220;2024-01-25T09:01:00;6.45;;;2.17;;
55065;SDS011;40964;42.114;24.220;2024-01-25T09:03:25;3.95;;;1.02;;
55065;SDS011;40964;42.114;24.220;2024-01-25T09:05:51;2.67;;;1.00;;
55065;SDS011;40964;42.114;24.220;2024-01-25T09:08:16;3.58;;;1.10;;
55065;SDS011;40964;42.114;24.220;2024-01-25T09:10:42;4.25;;;0.80;;
55065;SDS011;40964;42.114;24.220;2024-01-25T09:13:08;2.53;;;1.00;;
55065;SDS011;40964;42.114;24.220;2024-01-25T09:15:34;3.67;;;1.00;;
55065;SDS011;40964;42.114;24.220;2024-01-25T09:17:59;1.65;;;0.70;;
55065;SDS011;40964;42.114;24.220;2024-01-25T09:20:25;1.17;;;1.00;;
55065;SDS011;40964;42.114;24.220;2024-01-25T09:22:51;2.00;;;0.98;;
55065;SDS011;40964;42.114;24.220;2024-01-25T09:25:19;2.75;;;1.10;;
55065;SDS011;40964;42.114;24.220;2024-01-25T09:27:44;1.98;;;1.02;;
55065;SDS011;40964;42.114;24.220;2024-01-25T09:30:10;4.50;;;1.35;;
55065;SDS011;40964;42.114;24.220;2024-01-25T09:32:35;2.13;;;1.00;;
55065;SDS011;40964;42.114;24.220;2024-01-25T09:35:01;3.45;;;0.82;;
55065;SDS011;40964;42.114;24.220;2024-01-25T09:37:26;4.28;;;0.80;;
55065;SDS011;40964;42.114;24.220;2024-01-25T09:39:52;5.82;;;1.02;;
55065;SDS011;40964;42.114;24.220;2024-01-25T09:42:18;3.72;;;1.27;;
55065;SDS011;40964;42.114;24.220;2024-01-25T09:44:44;3.17;;;1.02;;
55065;SDS011;40964;42.114;24.220;2024-01-25T09:47:09;3.97;;;1.00;;
55065;SDS011;40964;42.114;24.220;2024-01-25T09:49:35;2.83;;;1.33;;
55065;SDS011;40964;42.114;24.220;2024-01-25T09:52:03;3.08;;;1.10;;
55065;SDS011;40964;42.114;24.220;2024-01-25T09:54:33;5.15;;;1.38;;
55065;SDS011;40964;42.114;24.220;2024-01-25T09:57:03;2.63;;;1.10;;
55065;SDS011;40964;42.114;24.220;2024-01-25T09:59:33;1.33;;;0.70;;
55065;SDS011;40964;42.114;24.220;2024-01-25T10:01:59;2.88;;;0.80;;
55065;SDS011;40964;42.114;24.220;2024-01-25T10:04:26;1.52;;;1.00;;
55065;SDS011;40964;42.114;24.220;2024-01-25T10:06:55;3.20;;;1.13;;
55065;SDS011;40964;42.114;24.220;2024-01-25T10:09:21;1.92;;;0.90;;
55065;SDS011;40964;42.114;24.220;2024-01-25T10:11:48;4.75;;;0.98;;
55065;SDS011;40964;42.114;24.220;2024-01-25T10:14:13;2.85;;;0.75;;
55065;SDS011;40964;42.114;24.220;2024-01-25T10:16:39;2.95;;;1.20;;
55065;SDS011;40964;42.114;24.220;2024-01-25T10:19:06;1.92;;;0.85;;
55065;SDS011;40964;42.114;24.220;2024-01-25T10:21:31;2.05;;;0.80;;
55065;SDS011;40964;42.114;24.220;2024-01-25T10:23:57;2.78;;;1.00;;
55065;SDS011;40964;42.114;24.220;2024-01-25T10:26:25;4.38;;;1.20;;
55065;SDS011;40964;42.114;24.220;2024-01-25T10:28:54;5.25;;;1.50;;
55065;SDS011;40964;42.114;24.220;2024-01-25T10:31:22;1.10;;;0.70;;
55065;SDS011;40964;42.114;24.220;2024-01-25T10:33:49;2.40;;;1.17;;
55065;SDS011;40964;42.114;24.220;2024-01-25T10:36:18;1.60;;;1.02;;
55065;SDS011;40964;42.114;24.220;2024-01-25T10:38:48;2.70;;;1.48;;
55065;SDS011;40964;42.114;24.220;2024-01-25T10:41:17;2.25;;;1.10;;
55065;SDS011;40964;42.114;24.220;2024-01-25T10:43:44;3.95;;;1.35;;
55065;SDS011;40964;42.114;24.220;2024-01-25T10:46:10;4.03;;;1.35;;
55065;SDS011;40964;42.114;24.220;2024-01-25T10:48:36;4.15;;;1.50;;
55065;SDS011;40964;42.114;24.220;2024-01-25T10:51:03;4.15;;;1.55;;
55065;SDS011;40964;42.114;24.220;2024-01-25T10:53:30;2.95;;;0.95;;
55065;SDS011;40964;42.114;24.220;2024-01-25T10:55:57;1.65;;;1.13;;
55065;SDS011;40964;42.114;24.220;2024-01-25T10:58:23;4.95;;;1.48;;
55065;SDS011;40964;42.114;24.220;2024-01-25T11:00:52;4.35;;;1.50;;
55065;SDS011;40964;42.114;24.220;2024-01-25T11:03:23;2.65;;;1.40;;
55065;SDS011;40964;42.114;24.220;2024-01-25T11:05:52;2.00;;;1.35;;
55065;SDS011;40964;42.114;24.220;2024-01-25T11:08:19;3.85;;;1.65;;
55065;SDS011;40964;42.114;24.220;2024-01-25T11:10:48;1.58;;;1.20;;
55065;SDS011;40964;42.114;24.220;2024-01-25T11:13:16;4.30;;;1.90;;
55065;SDS011;40964;42.114;24.220;2024-01-25T11:15:48;2.80;;;1.50;;
55065;SDS011;40964;42.114;24.220;2024-01-25T11:18:14;6.97;;;2.28;;
55065;SDS011;40964;42.114;24.220;2024-01-25T11:20:39;5.05;;;1.20;;
55065;SDS011;40964;42.114;24.220;2024-01-25T11:23:06;3.55;;;1.60;;
55065;SDS011;40964;42.114;24.220;2024-01-25T11:25:36;3.28;;;1.38;;
55065;SDS011;40964;42.114;24.220;2024-01-25T11:28:03;1.83;;;1.20;;
55065;SDS011;40964;42.114;24.220;2024-01-25T11:30:31;5.78;;;1.83;;
55065;SDS011;40964;42.114;24.220;2024-01-25T11:32:59;2.50;;;1.52;;
55065;SDS011;40964;42.114;24.220;2024-01-25T11:35:25;4.30;;;1.77;;
55065;SDS011;40964;42.114;24.220;2024-01-25T11:37:51;1.55;;;1.30;;
55065;SDS011;40964;42.114;24.220;2024-01-25T11:40:17;5.45;;;2.28;;
55065;SDS011;40964;42.114;24.220;2024-01-25T11:42:43;4.20;;;1.40;;
55065;SDS011;40964;42.114;24.220;2024-01-25T11:45:10;2.90;;;1.63;;
55065;SDS011;40964;42.114;24.220;2024-01-25T11:47:40;3.92;;;1.45;;
55065;SDS011;40964;42.114;24.220;2024-01-25T11:50:07;3.38;;;1.73;;
55065;SDS011;40964;42.114;24.220;2024-01-25T11:52:35;4.75;;;1.60;;
55065;SDS011;40964;42.114;24.220;2024-01-25T11:55:04;2.92;;;1.60;;
55065;SDS011;40964;42.114;24.220;2024-01-25T11:57:31;2.17;;;1.30;;
55065;SDS011;40964;42.114;24.220;2024-01-25T11:59:59;4.53;;;1.45;;
55065;SDS011;40964;42.114;24.220;2024-01-25T12:02:25;5.43;;;1.75;;
55065;SDS011;40964;42.114;24.220;2024-01-25T12:04:52;1.52;;;1.42;;
55065;SDS011;40964;42.114;24.220;2024-01-25T12:07:19;2.10;;;1.25;;
55065;SDS011;40964;42.114;24.220;2024-01-25T12:09:56;3.28;;;1.63;;
55065;SDS011;40964;42.114;24.220;2024-01-25T12:12:24;4.60;;;1.77;;
55065;SDS011;40964;42.114;24.220;2024-01-25T12:14:50;3.47;;;1.38;;
55065;SDS011;40964;42.114;24.220;2024-01-25T12:17:17;1.23;;;1.00;;
55065;SDS011;40964;42.114;24.220;2024-01-25T12:19:42;1.30;;;1.10;;
55065;SDS011;40964;42.114;24.220;2024-01-25T12:22:08;2.05;;;1.40;;
55065;SDS011;40964;42.114;24.220;2024-01-25T12:24:33;1.85;;;1.27;;
55065;SDS011;40964;42.114;24.220;2024-01-25T12:27:00;2.33;;;1.40;;
55065;SDS011;40964;42.114;24.220;2024-01-25T12:29:25;6.40;;;1.98;;
55065;SDS011;40964;42.114;24.220;2024-01-25T12:31:51;4.20;;;1.60;;
55065;SDS011;40964;42.114;24.220;2024-01-25T12:34:16;5.57;;;1.88;;
55065;SDS011;40964;42.114;24.220;2024-01-25T12:36:42;9.38;;;2.72;;
55065;SDS011;40964;42.114;24.220;2024-01-25T12:39:08;2.28;;;1.60;;
55065;SDS011;40964;42.114;24.220;2024-01-25T12:41:33;3.17;;;1.63;;
55065;SDS011;40964;42.114;24.220;2024-01-25T12:44:00;2.80;;;1.80;;
55065;SDS011;40964;42.114;24.220;2024-01-25T12:46:25;2.97;;;1.90;;
55065;SDS011;40964;42.114;24.220;2024-01-25T12:48:51;3.45;;;1.90;;
55065;SDS011;40964;42.114;24.220;2024-01-25T12:51:20;2.50;;;1.38;;
55065;SDS011;40964;42.114;24.220;2024-01-25T12:53:46;4.05;;;1.48;;
55065;SDS011;40964;42.114;24.220;2024-01-25T12:56:12;4.03;;;1.42;;
55065;SDS011;40964;42.114;24.220;2024-01-25T12:58:38;4.82;;;2.03;;
55065;SDS011;40964;42.114;24.220;2024-01-25T13:01:04;5.43;;;1.77;;
55065;SDS011;40964;42.114;24.220;2024-01-25T13:03:30;7.50;;;1.83;;
55065;SDS011;40964;42.114;24.220;2024-01-25T13:05:55;2.50;;;0.90;;
55065;SDS011;40964;42.114;24.220;2024-01-25T13:08:21;1.90;;;1.40;;
55065;SDS011;40964;42.114;24.220;2024-01-25T13:10:46;4.32;;;1.92;;
55065;SDS011;40964;42.114;24.220;2024-01-25T13:13:11;1.30;;;1.10;;
55065;SDS011;40964;42.114;24.220;2024-01-25T13:15:37;2.78;;;1.70;;
55065;SDS011;40964;42.114;24.220;2024-01-25T13:18:02;7.03;;;2.90;;
55065;SDS011;40964;42.114;24.220;2024-01-25T13:20:28;5.90;;;2.00;;
55065;SDS011;40964;42.114;24.220;2024-01-25T13:22:54;7.30;;;1.83;;
55065;SDS011;40964;42.114;24.220;2024-01-25T13:25:19;4.13;;;1.55;;
55065;SDS011;40964;42.114;24.220;2024-01-25T13:27:44;2.53;;;1.50;;
55065;SDS011;40964;42.114;24.220;2024-01-25T13:30:10;2.58;;;1.63;;
55065;SDS011;40964;42.114;24.220;2024-01-25T13:32:37;2.53;;;1.55;;
55065;SDS011;40964;42.114;24.220;2024-01-25T13:35:02;5.47;;;2.10;;
55065;SDS011;40964;42.114;24.220;2024-01-25T13:37:28;2.83;;;1.77;;
55065;SDS011;40964;42.114;24.220;2024-01-25T13:39:54;5.50;;;1.90;;
55065;SDS011;40964;42.114;24.220;2024-01-25T13:42:19;1.83;;;1.23;;
55065;SDS011;40964;42.114;24.220;2024-01-25T13:44:44;4.00;;;1.38;;
55065;SDS011;40964;42.114;24.220;2024-01-25T13:47:10;3.92;;;1.48;;
55065;SDS011;40964;42.114;24.220;2024-01-25T13:49:35;2.95;;;1.40;;
55065;SDS011;40964;42.114;24.220;2024-01-25T13:54:42;1.85;;;1.27;;
55065;SDS011;40964;42.114;24.220;2024-01-25T13:57:08;3.35;;;2.10;;
55065;SDS011;40964;42.114;24.220;2024-01-25T13:59:33;1.40;;;1.17;;
55065;SDS011;40964;42.114;24.220;2024-01-25T14:01:59;3.03;;;1.33;;
55065;SDS011;40964;42.114;24.220;2024-01-25T14:04:24;5.35;;;1.35;;
55065;SDS011;40964;42.114;24.220;2024-01-25T14:06:49;5.90;;;1.52;;
55065;SDS011;40964;42.114;24.220;2024-01-25T14:09:15;1.80;;;1.35;;
55065;SDS011;40964;42.114;24.220;2024-01-25T14:11:40;1.90;;;1.40;;
55065;SDS011;40964;42.114;24.220;2024-01-25T14:14:06;3.50;;;1.60;;
55065;SDS011;40964;42.114;24.220;2024-01-25T14:16:31;3.55;;;1.30;;
55065;SDS011;40964;42.114;24.220;2024-01-25T14:18:56;3.33;;;1.42;;
55065;SDS011;40964;42.114;24.220;2024-01-25T14:21:23;2.08;;;1.15;;
55065;SDS011;40964;42.114;24.220;2024-01-25T14:23:49;6.90;;;1.98;;
55065;SDS011;40964;42.114;24.220;2024-01-25T14:26:14;5.50;;;1.40;;
55065;SDS011;40964;42.114;24.220;2024-01-25T14:28:39;5.93;;;1.83;;
55065;SDS011;40964;42.114;24.220;2024-01-25T14:31:05;1.85;;;1.10;;